Terminal Aerodrome Forecast
Issued by NWS Albuquerque, NM

Home | Current Version | Previous Version | Text Only | Print | Product List | Glossary On
Versions: 1 2 3 4 5 6 7 8 9 10 11 12 13 14 15 16 17 18
000
FTUS45 KABQ 181700
TAFABQ
TAF
KABQ 181730Z 1818/1918 17005KT P6SM FEW040 BKN080 OVC150
     FM190100 VRB04KT P6SM VCSH OVC060
     FM191000 35005KT P6SM VCFG SCT004 SCT100
     FM191500 36006KT P6SM SCT250=

USA.gov is the U.S. government's official web portal to all federal, state and local government web resources and services.